Map

Track Data

SID SEASON NUMBER BASIN SUBBASIN NAME ISO_TIME NATURE LAT LON WMO_WIND WMO_PRES WMO_AGENCY TRACK_TYPE DIST2LAND LANDFALL IFLAG USA_AGENCY USA_ATCF_ID USA_LAT USA_LON USA_RECORD USA_STATUS USA_WIND USA_PRES USA_SSHS USA_R34_NE USA_R34_SE USA_R34_SW USA_R34_NW USA_R50_NE USA_R50_SE USA_R50_SW USA_R50_NW USA_R64_NE USA_R64_SE USA_R64_SW USA_R64_NW USA_POCI USA_ROCI USA_RMW USA_EYE TOKYO_LAT TOKYO_LON TOKYO_GRADE TOKYO_WIND TOKYO_PRES TOKYO_R50_DIR TOKYO_R50_LONG TOKYO_R50_SHORT TOKYO_R30_DIR TOKYO_R30_LONG TOKYO_R30_SHORT TOKYO_LAND CMA_LAT CMA_LON CMA_CAT CMA_WIND CMA_PRES HKO_LAT HKO_LON HKO_CAT HKO_WIND HKO_PRES NEWDELHI_LAT NEWDELHI_LON NEWDELHI_GRADE NEWDELHI_WIND NEWDELHI_PRES NEWDELHI_CI NEWDELHI_DP NEWDELHI_POCI REUNION_LAT REUNION_LON REUNION_TYPE REUNION_WIND REUNION_PRES REUNION_TNUM REUNION_CI REUNION_RMW REUNION_R34_NE REUNION_R34_SE REUNION_R34_SW REUNION_R34_NW REUNION_R50_NE REUNION_R50_SE REUNION_R50_SW REUNION_R50_NW REUNION_R64_NE REUNION_R64_SE REUNION_R64_SW REUNION_R64_NW BOM_LAT BOM_LON BOM_TYPE BOM_WIND BOM_PRES BOM_TNUM BOM_CI BOM_RMW BOM_R34_NE BOM_R34_SE BOM_R34_SW BOM_R34_NW BOM_R50_NE BOM_R50_SE BOM_R50_SW BOM_R50_NW BOM_R64_NE BOM_R64_SE BOM_R64_SW BOM_R64_NW BOM_ROCI BOM_POCI BOM_EYE BOM_POS_METHOD BOM_PRES_METHOD NADI_LAT NADI_LON NADI_CAT NADI_WIND NADI_PRES WELLINGTON_LAT WELLINGTON_LON WELLINGTON_WIND WELLINGTON_PRES DS824_LAT DS824_LON DS824_STAGE DS824_WIND DS824_PRES TD9636_LAT TD9636_LON TD9636_STAGE TD9636_WIND TD9636_PRES TD9635_LAT TD9635_LON TD9635_WIND TD9635_PRES TD9635_ROCI NEUMANN_LAT NEUMANN_LON NEUMANN_CLASS NEUMANN_WIND NEUMANN_PRES MLC_LAT MLC_LON MLC_CLASS MLC_WIND MLC_PRES USA_GUST BOM_GUST BOM_GUST_PER REUNION_GUST REUNION_GUST_PER USA_SEAHGT USA_SEARAD_NE USA_SEARAD_SE USA_SEARAD_SW USA_SEARAD_NW STORM_SPEED STORM_DIR
1974054S14084 1974 16 SI MM GHISLAINE 1974-02-22 12:00:00 TS -14.0000 84.0000 main 2141 2141 _____O______O_ -1 -14.0000 84.0000 3 9.90000 -14.0000 84.0000 TC 35 8 195
1974054S14084 1974 16 SI MM GHISLAINE 1974-02-22 15:00:00 TS -14.3749 83.9025 main 2178 2178 _____P______P_ -1 -14.3749 83.9025 3 -14.3749 83.9025 TC 35 8 190
1974054S14084 1974 16 SI MM GHISLAINE 1974-02-22 18:00:00 TS -14.7333 83.8667 main 2199 2199 O____O___OO_O_ jtwc_sh SH241974 -14.8000 84.2000 -1 -14.7000 83.7000 99 9.90000 -14.8000 84.2000 TC -14.8000 84.2000 7 -14.7000 83.7000 TC 35 9 222
1974054S14084 1974 16 SI MM GHISLAINE 1974-02-22 21:00:00 TS -15.0107 83.3101 main 2270 2270 P____P___PP_P_ SH241974 -15.1136 83.2357 -1 -14.9376 83.3301 99 -15.1136 83.2357 TC -15.0969 83.3791 7 -14.9376 83.3301 TC 35 13 246
1974054S14084 1974 16 SI MM GHISLAINE 1974-02-23 00:00:00 TS -15.2542 82.6715 main 2341 2341 O____O___OP_O_ jtwc_sh SH241974 -15.4000 82.4000 -1 -15.1000 82.9000 99 9.90000 -15.4000 82.4000 TC -15.3737 82.6052 7 -15.1000 82.9000 TC 35 12 249
1974054S14084 1974 16 SI MM GHISLAINE 1974-02-23 03:00:00 TS -15.4605 82.1206 main 2403 2401 P____P___PP_P_ SH241974 -15.6371 81.7948 -1 -15.2074 82.5423 99 -15.6371 81.7948 TC -15.6134 81.9287 7 -15.2074 82.5423 TC 35 10 249
1974054S14084 1974 16 SI MM GHISLAINE 1974-02-23 06:00:00 TS -15.6000 81.7200 main 2411 2411 O____O___OO_O_ jtwc_sh SH241974 -15.8000 81.4000 -1 -15.3000 82.2000 99 9.90000 -15.8000 81.4000 TC 25 -15.8000 81.4000 1 -15.3000 82.2000 TC 35 7 249
1974054S14084 1974 16 SI MM GHISLAINE 1974-02-23 09:00:00 TS -15.7197 81.4032 main 2421 2420 P____P___PP_P_ SH241974 -15.8648 81.1548 -1 -15.4725 81.8276 99 -15.8648 81.1548 TC 25 -15.9239 81.0513 1 -15.4725 81.8276 TC 42 6 249
1974054S14084 1974 16 SI MM GHISLAINE 1974-02-23 12:00:00 TS -15.8002 81.1683 main 2431 2431 O____O___OP_O_ jtwc_sh SH241974 -15.9000 81.0000 -1 -15.6000 81.5000 3 9.90000 -15.9000 81.0000 TC 25 -16.0009 80.8414 1 -15.6000 81.5000 TC 50 4 255
1974054S14084 1974 16 SI MM GHISLAINE 1974-02-23 15:00:00 TS -15.8335 80.9671 main 2431 2431 P____P___PP_P_ SH241974 -16.0000 80.7925 -1 -15.5574 81.2698 3 -16.0000 80.7925 TC 25 -16.0525 80.7109 1 -15.5574 81.2698 TC 42 4 260
1974054S14084 1974 16 SI MM GHISLAINE 1974-02-23 18:00:00 TS -15.8600 80.8000 main 2442 2442 O____O___OO_O_ jtwc_sh SH241974 -16.1000 80.6000 -1 -15.5000 81.1000 99 9.90000 -16.1000 80.6000 TC 25 -16.1000 80.6000 1 -15.5000 81.1000 TC 35 3 253
1974054S14084 1974 16 SI MM GHISLAINE 1974-02-23 21:00:00 TS -15.9289 80.6495 main 2442 2442 P____P___PP_P_ SH241974 -16.1500 80.4499 -1 -15.5849 80.9650 99 -16.1500 80.4499 TC 25 -16.1749 80.4178 1 -15.5849 80.9650 TC 35 3 243
1974054S14084 1974 16 SI MM GHISLAINE 1974-02-24 00:00:00 TS -16.0100 80.4885 main 2444 2420 O____O___OP_O_ jtwc_sh SH241974 -16.2000 80.3000 -1 -15.7000 80.8000 99 9.90000 -16.2000 80.3000 TC 25 -16.2499 80.2424 1 -15.7000 80.8000 TC 35 4 247
1974054S14084 1974 16 SI MM GHISLAINE 1974-02-24 03:00:00 TS -16.0910 80.2542 main 2420 2386 P____P___PP_P_ SH241974 -16.3000 80.1000 -1 -15.7651 80.5000 99 -16.3000 80.1000 TC 25 -16.3249 80.0709 1 -15.7651 80.5000 TC 35 5 252
1974054S14084 1974 16 SI MM GHISLAINE 1974-02-24 06:00:00 TS -16.1600 80.0200 main 2386 2376 O____O___OO_O_ jtwc_sh SH241974 -16.4000 79.9000 -1 -15.8000 80.2000 99 9.90000 -16.4000 79.9000 TC 25 -16.4000 79.9000 1 -15.8000 80.2000 TC 35 4 255
1974054S14084 1974 16 SI MM GHISLAINE 1974-02-24 09:00:00 TS -16.1911 79.8687 main 2376 2355 P____P___PP_P_ SH241974 -16.4500 79.7499 -1 -15.7923 80.0574 99 -16.4500 79.7499 TC 25 -16.4709 79.7290 1 -15.7923 80.0574 TC 37 3 257
1974054S14084 1974 16 SI MM GHISLAINE 1974-02-24 12:00:00 TS -16.2285 79.7115 reunion main 2355 2332 O____O___OP_O_ jtwc_sh SH241974 -16.5000 79.6000 -1 -15.8000 79.9000 3 9.90000 -16.5000 79.6000 TC 25 -16.5424 79.5574 1 -15.8000 79.9000 TC 40 4 252
1974054S14084 1974 16 SI MM GHISLAINE 1974-02-24 15:00:00 TS -16.3176 79.4625 main 2332 2298 P____P___PP_P_ SH241974 -16.5925 79.4075 -1 -15.8927 79.5576 3 -16.5925 79.4075 TC 25 -16.6177 79.3821 1 -15.8927 79.5576 TC 40 5 249
1974054S14084 1974 16 SI MM GHISLAINE 1974-02-24 18:00:00 TS -16.4200 79.2000 reunion main 2298 2275 O____O___OO_O_ jtwc_sh SH241974 -16.7000 79.2000 -1 -16.0000 79.2000 99 9.90000 -16.7000 79.2000 TC 25 -16.7000 79.2000 1 -16.0000 79.2000 TC 40 5 247
1974054S14084 1974 16 SI MM GHISLAINE 1974-02-24 21:00:00 TS -16.5031 79.0030 main 2275 2251 P____P___PP_P_ SH241974 -16.8000 79.0000 -1 -16.0573 78.9999 99 -16.8000 79.0000 TC 25 -16.8009 79.0153 1 -16.0573 78.9999 TC 42 4 247
1974054S14084 1974 16 SI MM GHISLAINE 1974-02-25 00:00:00 TS -16.5815 78.8045 reunion main 2251 2231 O____O___OP_O_ jtwc_sh SH241974 -16.9000 78.8000 -1 -16.1000 78.8000 99 9.90000 -16.9000 78.8000 TC 25 -16.9074 78.8225 1 -16.1000 78.8000 TC 45 5 251
1974054S14084 1974 16 SI MM GHISLAINE 1974-02-25 03:00:00 TS -16.6531 78.5496 main 2218 2197 P____P___PP_P_ SH241974 -17.0075 78.6075 -1 -16.1201 78.4574 99 -17.0075 78.6075 TC 30 -17.0102 78.6185 1 -16.1201 78.4574 TC 45 5 252
1974054S14084 1974 16 SI MM GHISLAINE 1974-02-25 06:00:00 TS -16.7400 78.2800 reunion main 2197 2171 O____O___OO_O_ jtwc_sh SH241974 -17.1000 78.4000 -1 -16.2000 78.1000 99 9.90000 -17.1000 78.4000 TC 35 -17.1000 78.4000 2 -16.2000 78.1000 TC 45 5 246
1974054S14084 1974 16 SI MM GHISLAINE 1974-02-25 09:00:00 TS -16.8719 78.0457 main 2161 2137 P____P___PP_P_ SH241974 -17.1575 78.1575 -1 -16.4422 77.8725 99 -17.1575 78.1575 TC 35 -17.1603 78.1683 2 -16.4422 77.8725 TC 45 5 241
1974054S14084 1974 16 SI MM GHISLAINE 1974-02-25 12:00:00 TS -17.0015 77.7845 reunion main 2137 2104 O____O___OP_O_ jtwc_sh SH241974 -17.2000 77.9000 -1 -16.7000 77.6000 3 9.90000 -17.2000 77.9000 TC 35 -17.2074 77.9223 2 -16.7000 77.6000 TC 45 6 250
1974054S14084 1974 16 SI MM GHISLAINE 1974-02-25 15:00:00 TS -17.0852 77.4420 main 2093 2062 P____P___PP_P_ SH241974 -17.2575 77.6500 -1 -16.8302 77.1225 3 -17.2575 77.6500 TC 35 -17.2509 77.6652 2 -16.8302 77.1225 TC 42 7 258
1974054S14084 1974 16 SI MM GHISLAINE 1974-02-25 18:00:00 TS -17.1400 77.0800 reunion main 2062 2029 O____O___OO_O_ jtwc_sh SH241974 -17.3000 77.4000 -1 -16.9000 76.6000 99 9.90000 -17.3000 77.4000 TC 35 -17.3000 77.4000 2 -16.9000 76.6000 TC 40 6 263
1974054S14084 1974 16 SI MM GHISLAINE 1974-02-25 21:00:00 TS -17.1637 76.7879 main 2029 1998 P____P___PP_P_ SH241974 -17.2849 77.1574 -1 -16.9571 76.2224 99 -17.2849 77.1574 TC 35 -17.3346 77.1802 2 -16.9571 76.2224 TC 40 6 264
1974054S14084 1974 16 SI MM GHISLAINE 1974-02-26 00:00:00 TS -17.1963 76.4692 reunion main 1998 1954 O____O___OP_O_ jtwc_sh SH241974 -17.3000 76.9000 -1 -17.0000 75.8000 99 9.90000 -17.3000 76.9000 TC 35 -17.3814 76.9462 2 -17.0000 75.8000 TC 40 7 262
1974054S14084 1974 16 SI MM GHISLAINE 1974-02-26 03:00:00 TS -17.2625 76.0566 main 1954 1900 P____P___PP_P_ SH241974 -17.4123 76.6448 -1 -17.0128 75.1647 99 -17.4123 76.6448 TC 35 -17.4625 76.6642 2 -17.0128 75.1647 TC 40 9 257
1974054S14084 1974 16 SI MM GHISLAINE 1974-02-26 06:00:00 TS -17.4000 75.5800 reunion main 1900 1843 O____O___OO_O_ jtwc_sh SH241974 -17.6000 76.3000 -1 -17.1000 74.5000 99 9.90000 -17.6000 76.3000 TC 35 -17.6000 76.3000 2 -17.1000 74.5000 TC 40 10 248
1974054S14084 1974 16 SI MM GHISLAINE 1974-02-26 09:00:00 TS -17.6427 75.0493 main 1833 1774 P____P___PP_P_ SH241974 -17.8275 75.7950 -1 -17.3699 73.9403 99 -17.8275 75.7950 TC 35 -17.8187 75.7757 2 -17.3699 73.9403 TC 40 12 242
1974054S14084 1974 16 SI MM GHISLAINE 1974-02-26 12:00:00 TS -17.9383 74.5148 reunion main 1774 1716 O____O___OP_O_ jtwc_sh SH241974 -18.1000 75.2000 -1 -17.7000 73.5000 3 9.90000 -18.1000 75.2000 TC 35 -18.0917 75.1739 2 -17.7000 73.5000 TC 40 11 240
1974054S14084 1974 16 SI MM GHISLAINE 1974-02-26 15:00:00 TS -18.2097 74.0219 main 1716 1668 P____P___PP_P_ SH241974 -18.4002 74.5702 -1 -17.9273 73.2047 3 -18.4002 74.5702 TC 35 -18.3937 74.5600 2 -17.9273 73.2047 TC 40 10 237
1974054S14084 1974 16 SI MM GHISLAINE 1974-02-26 18:00:00 TS -18.5000 73.6000 reunion main 1668 1632 O____O___OO_O_ jtwc_sh SH241974 -18.7000 74.0000 -1 -18.2000 73.0000 99 9.90000 -18.7000 74.0000 TC 35 -18.7000 74.0000 2 -18.2000 73.0000 TC 40 9 229
1974054S14084 1974 16 SI MM GHISLAINE 1974-02-26 21:00:00 TS -18.8121 73.2853 main 1632 1596 P____P___PP_P_ SH241974 -18.9497 73.6121 -1 -18.6199 72.8073 99 -18.9497 73.6121 TC 35 -18.9212 73.5876 2 -18.6199 72.8073 TC 40 9 221
1974054S14084 1974 16 SI MM GHISLAINE 1974-02-27 00:00:00 TS -19.1503 73.0075 reunion main 1594 1559 O____O___OP_O_ jtwc_sh SH241974 -19.2000 73.3000 -1 -19.1000 72.6000 99 9.90000 -19.2000 73.3000 TC 35 -19.1513 73.2375 2 -19.1000 72.6000 TC 40 9 220
1974054S14084 1974 16 SI MM GHISLAINE 1974-02-27 03:00:00 TS -19.4851 72.6896 main 1559 1524 P____P___PP_P_ SH241974 -19.4549 72.9571 -1 -19.5426 72.3075 99 -19.4549 72.9571 TC 35 -19.4308 72.9187 2 -19.5426 72.3075 TC 40 10 220
1974054S14084 1974 16 SI MM GHISLAINE 1974-02-27 06:00:00 TS -19.8800 72.3600 reunion main 1524 1479 O____O___OO_O_ jtwc_sh SH241974 -19.8000 72.6000 -1 -20.0000 72.0000 99 9.90000 -19.8000 72.6000 TC 35 -19.8000 72.6000 2 -20.0000 72.0000 TC 40 11 216
1974054S14084 1974 16 SI MM GHISLAINE 1974-02-27 09:00:00 TS -20.3820 72.0079 main 1479 1447 P____P___PP_P_ SH241974 -20.2975 72.2000 -1 -20.5000 71.7349 99 -20.2975 72.2000 TC 35 -20.3152 72.1695 2 -20.5000 71.7349 TC 40 13 211
1974054S14084 1974 16 SI MM GHISLAINE 1974-02-27 12:00:00 TS -20.9437 71.6682 reunion main 1447 1417 O____O___OP_O_ jtwc_sh SH241974 -20.9000 71.8000 -1 -21.0000 71.5000 3 9.90000 -20.9000 71.8000 TC 35 -20.9183 71.7410 2 -21.0000 71.5000 TC 40 13 209
1974054S14084 1974 16 SI MM GHISLAINE 1974-02-27 15:00:00 TS -21.5245 71.3435 main 1408 1391 P____P___PP_P_ SH241974 -21.5501 71.3979 -1 -21.4800 71.2775 3 -21.5501 71.3979 TC 35 -21.5622 71.3666 2 -21.4800 71.2775 TC 40 13 205
1974054S14084 1974 16 SI MM GHISLAINE 1974-02-27 18:00:00 TS -22.0800 71.1000 reunion main 1392 1383 O____O___OO_O_ jtwc_sh SH241974 -22.2000 71.1000 -1 -21.9000 71.1000 99 9.90000 -22.2000 71.1000 TC 35 -22.2000 71.1000 2 -21.9000 71.1000 TC 40 11 198
1974054S14084 1974 16 SI MM GHISLAINE 1974-02-27 21:00:00 TS -22.5468 70.9851 main 1387 1387 P____P___PP_P_ SH241974 -22.7648 70.9821 -1 -22.2000 70.9847 99 -22.7648 70.9821 TC 35 -22.8043 70.9918 2 -22.2000 70.9847 TC 40 9 188
1974054S14084 1974 16 SI MM GHISLAINE 1974-02-28 00:00:00 TS -22.9978 70.9595 reunion main 1396 1396 O____O___OP_O_ jtwc_sh SH241974 -23.3000 71.0000 -1 -22.5000 70.9000 99 9.90000 -23.3000 71.0000 TC 35 -23.3892 70.9975 2 -22.5000 70.9000 TC 40 10 181
1974054S14084 1974 16 SI MM GHISLAINE 1974-02-28 03:00:00 TS -23.5059 70.9609 main 1407 1407 P____P___PP_P_ SH241974 -23.8875 71.0772 -1 -22.9125 70.7851 99 -23.8875 71.0772 TC 35 -23.9296 71.0797 2 -22.9125 70.7851 TC 37 10 177
1974054S14084 1974 16 SI MM GHISLAINE 1974-02-28 06:00:00 TS -24.0000 71.0000 reunion main 1419 1419 O____O___OO_O_ jtwc_sh SH241974 -24.4000 71.2000 -1 -23.4000 70.7000 99 9.90000 -24.4000 71.2000 TC 35 -24.4000 71.2000 2 -23.4000 70.7000 TC 35 9 175
1974054S14084 1974 16 SI MM GHISLAINE 1974-02-28 09:00:00 TS -24.4138 71.0337 main 1431 1431 P____P___PP_P_ SH241974 -24.7375 71.2927 -1 -23.9275 70.6553 99 -24.7375 71.2927 TC 35 -24.7392 71.2727 2 -23.9275 70.6553 TC 35 8 172
1974054S14084 1974 16 SI MM GHISLAINE 1974-02-28 12:00:00 MX -24.8029 71.1153 reunion main 1454 1454 O____O___OP_O_ jtwc_sh SH241974 -25.0000 71.4000 -1 -24.5000 70.7000 3 9.90000 -25.0000 71.4000 TC 35 -25.0147 71.3764 2 -24.5000 70.7000 EX 35 8 166
1974054S14084 1974 16 SI MM GHISLAINE 1974-02-28 15:00:00 MX -25.2076 71.2594 main 1487 1487 P____P___PP_P_ SH241974 -25.2700 71.5352 -1 -25.1075 70.8549 3 -25.2700 71.5352 TC 35 -25.2829 71.5169 2 -25.1075 70.8549 EX 35 9 160
1974054S14084 1974 16 SI MM GHISLAINE 1974-02-28 18:00:00 MX -25.6400 71.4600 reunion main 1520 1520 O____O___OO_O_ jtwc_sh SH241974 -25.6000 71.7000 -1 -25.7000 71.1000 99 9.90000 -25.6000 71.7000 TC 35 -25.6000 71.7000 2 -25.7000 71.1000 EX 35 10 157
1974054S14084 1974 16 SI MM GHISLAINE 1974-02-28 21:00:00 MX -26.1194 71.6820 main 1558 1558 P____P___PP_P_ SH241974 -26.0699 71.8703 -1 -26.2076 71.3926 99 -26.0699 71.8703 TC 35 -26.0419 71.8842 2 -26.2076 71.3926 EX 35 11 156
1974054S14084 1974 16 SI MM GHISLAINE 1974-03-01 00:00:00 MX -26.6278 71.9434 reunion main 1597 1597 O____O___OP_O_ jtwc_sh SH241974 -26.6000 72.1000 -1 -26.7000 71.7000 99 9.90000 -26.6000 72.1000 TC 35 -26.5389 72.1170 2 -26.7000 71.7000 EX 35 11 155
1974054S14084 1974 16 SI MM GHISLAINE 1974-03-01 03:00:00 MX -27.1531 72.2196 main 1651 1651 P____P___PP_P_ SH241974 -27.0999 72.4053 -1 -27.2498 71.9356 99 -27.0999 72.4053 TC 35 -27.0665 72.4162 2 -27.2498 71.9356 EX 35 12 152
1974054S14084 1974 16 SI MM GHISLAINE 1974-03-01 06:00:00 MX -27.6800 72.5600 reunion main 1710 1710 O____O___OO_O_ jtwc_sh SH241974 -27.6000 72.8000 -1 -27.8000 72.2000 99 9.90000 -27.6000 72.8000 TC 35 -27.6000 72.8000 2 -27.8000 72.2000 EX 35 12 147
1974054S14084 1974 16 SI MM GHISLAINE 1974-03-01 09:00:00 MX -28.1907 72.9771 main 1769 1769 P____P___PP_P_ SH241974 -28.0998 73.2555 -1 -28.3148 72.5553 99 -28.0998 73.2555 TC 35 -28.1243 73.2638 2 -28.3148 72.5553 EX 35 13 141
1974054S14084 1974 16 SI MM GHISLAINE 1974-03-01 12:00:00 MX -28.6889 73.4829 reunion main 1837 1837 O____O___OP_O_ jtwc_sh SH241974 -28.6000 73.8000 -1 -28.8000 73.0000 3 9.90000 -28.6000 73.8000 TC 35 -28.6446 73.8144 2 -28.8000 73.0000 EX 35 14 136
1974054S14084 1974 16 SI MM GHISLAINE 1974-03-01 15:00:00 MX -29.1864 74.0626 main 1915 1915 P____P___PP_P_ SH241974 -29.1148 74.4127 -1 -29.2800 73.5274 3 -29.1148 74.4127 TC 35 -29.1426 74.4329 2 -29.2800 73.5274 EX 35 14 132
1974054S14084 1974 16 SI MM GHISLAINE 1974-03-01 18:00:00 MX -29.6400 74.7000 reunion main 1986 1986 O____O___OO_O_ jtwc_sh SH241974 -29.6000 75.1000 -1 -29.7000 74.1000 99 9.90000 -29.6000 75.1000 TC 35 -29.6000 75.1000 2 -29.7000 74.1000 EX 35 14 127
1974054S14084 1974 16 SI MM GHISLAINE 1974-03-01 21:00:00 MX -30.0261 75.3485 main 2058 2058 P____P___PP_P_ SH241974 -30.0299 75.8428 -1 -30.0217 74.6135 99 -30.0299 75.8428 TC 30 -30.0271 75.8299 2 -30.0217 74.6135 EX 32 14 122
1974054S14084 1974 16 SI MM GHISLAINE 1974-03-02 00:00:00 MX -30.3614 76.0387 reunion main 2131 2112 O____O___OP_O_ jtwc_sh SH241974 -30.4000 76.6000 -1 -30.3000 75.2000 99 9.90000 -30.4000 76.6000 TC 25 -30.4072 76.5937 2 -30.3000 75.2000 EX 30 14 118
1974054S14084 1974 16 SI MM GHISLAINE 1974-03-02 03:00:00 MX -30.6939 76.7989 main 2114 2101 P____P___PP_P_ SH241974 -30.7299 77.3378 -1 -30.6381 75.9916 99 -30.7299 77.3378 TC 25 -30.7335 77.3358 2 -30.6381 75.9916 EX 30 14 115
1974054S14084 1974 16 SI MM GHISLAINE 1974-03-02 06:00:00 MX -30.9600 77.5200 reunion main 2097 2094 O____O___OO_O_ jtwc_sh SH241974 -31.0000 78.0000 -1 -30.9000 76.8000 99 9.90000 -31.0000 78.0000 TC 25 -31.0000 78.0000 1 -30.9000 76.8000 EX 30 12 111
1974054S14084 1974 16 SI MM GHISLAINE 1974-03-02 09:00:00 MX -31.1279 78.1293 main 2101 2093 P____P___PP_P_ SH241974 -31.2296 78.5528 -1 -30.9874 77.4984 99 -31.2296 78.5528 TC 25 -31.2056 78.5441 1 -30.9874 77.4984 EX 30 9 106
1974054S14084 1974 16 SI MM GHISLAINE 1974-03-02 12:00:00 MX -31.2053 78.5270 reunion main 2101 2095 O____O___OP_O_ jtwc_sh SH241974 -31.4000 79.0000 -1 -31.0000 78.0000 99 9.90000 -31.4000 79.0000 TC 25 -31.3635 78.9862 1 -31.0000 78.0000 EX 30 5 104
1974054S14084 1974 16 SI MM GHISLAINE 1974-03-02 15:00:00 MX -31.2540 78.7014 main 2095 2095 P____P___PP_P_ SH241974 -31.5152 79.3699 -1 -31.0644 78.2025 99 -31.5152 79.3699 TC 25 -31.4897 79.3601 1 -31.0644 78.2025 EX 30 1 103
1974054S14084 1974 16 SI MM GHISLAINE 1974-03-02 18:00:00 MX -31.2364 78.6818 reunion main 2106 2103 O____O___OO_O_ jtwc_sh SH241974 -31.6000 79.7000 -1 -31.1000 78.3000 99 9.90000 -31.6000 79.7000 TC 25 -31.6000 79.7000 6 -31.1000 78.3000 EX 30 2 327
1974054S14084 1974 16 SI MM GHISLAINE 1974-03-02 21:00:00 ET -31.0576 78.5577 main 2114 2114 _____P______P_ SH241974 -1 -31.0576 78.5577 99 TC 6 -31.0576 78.5577 EX 30 3 24
1974054S14084 1974 16 SI MM GHISLAINE 1974-03-03 00:00:00 ET -31.0000 78.8000 reunion main 2130 2130 _____O______O_ -1 -31.0000 78.8000 99 9.90000 6 -31.0000 78.8000 EX 30 3 80
1974054S14084 1974 16 SI MM GHISLAINE 1974-03-03 03:00:00 ET -30.9999 78.9299 main 2133 2133 _____P______P_ -1 -30.9999 78.9299 99 6 -30.9999 78.9299 EX 30 2 90
1974054S14084 1974 16 SI MM GHISLAINE 1974-03-03 06:00:00 ET -31.0000 79.0000 reunion main 2136 2136 _____O______O_ -1 -31.0000 79.0000 99 9.90000 -31.0000 79.0000 EX 30 1 96
1974054S14084 1974 16 SI MM GHISLAINE 1974-03-03 09:00:00 ET -31.0099 79.0347 main 2136 2136 _____P______P_ -1 -31.0099 79.0347 99 -31.0099 79.0347 EX 30 1 40
1974054S14084 1974 16 SI MM GHISLAINE 1974-03-03 12:00:00 ET -30.9000 79.1000 reunion main 2149 2149 _____O______O_ -1 -30.9000 79.1000 5 9.90000 -30.9000 79.1000 EX 30 5 30
1974054S14084 1974 16 SI MM GHISLAINE 1974-03-03 15:00:00 ET -30.5376 79.3461 main 2197 2197 _____P______P_ -1 -30.5376 79.3461 5 -30.5376 79.3461 EX 30 9 23
1974054S14084 1974 16 SI MM GHISLAINE 1974-03-03 18:00:00 ET -30.1000 79.5000 reunion main 2246 2246 _____O______O_ -1 -30.1000 79.5000 99 9.90000 -30.1000 79.5000 EX 30 8 2
1974054S14084 1974 16 SI MM GHISLAINE 1974-03-03 21:00:00 ET -29.7699 79.3471 main 2272 2272 _____P______P_ -1 -29.7699 79.3471 99 -29.7699 79.3471 EX 30 7 324
1974054S14084 1974 16 SI MM GHISLAINE 1974-03-04 00:00:00 ET -29.5000 79.0000 reunion main 2296 2294 _____O______O_ -1 -29.5000 79.0000 99 9.90000 -29.5000 79.0000 EX 30 8 308
1974054S14084 1974 16 SI MM GHISLAINE 1974-03-04 03:00:00 ET -29.2624 78.5949 main 2308 2266 _____P______P_ -1 -29.2624 78.5949 99 -29.2624 78.5949 EX 30 9 297
1974054S14084 1974 16 SI MM GHISLAINE 1974-03-04 06:00:00 ET -29.1000 78.1000 reunion main 2266 2217 _____O______O_ -1 -29.1000 78.1000 99 9.90000 -29.1000 78.1000 EX 30 9 285
1974054S14084 1974 16 SI MM GHISLAINE 1974-03-04 09:00:00 ET -29.0254 77.5602 main 2217 2162 _____P______P_ -1 -29.0254 77.5602 99 -29.0254 77.5602 EX 27 10 276
1974054S14084 1974 16 SI MM GHISLAINE 1974-03-04 12:00:00 ET -29.0000 77.0000 reunion main 2162 _____O______O_ -1 -29.0000 77.0000 5 9.90000 -29.0000 77.0000 EX 25 10 273

About IBTrACS Database

This database is a web-friendly format of International Best Track Archive for Climate Stewardship (IBTrACS), a global best track data archive curated by NOAA dating back to 1842.

Updated: 2021-10-27